Time;durP1;ratioP1;P1;durP2;ratioP2;P2;SDS_P1;SDS_P2;PMS_P1;PMS_P2;Temp;Humidity;BMP_temperature;BMP_pressure;BME280_temperature;BME280_humidity;BME280_pressure;Samples;Min_cycle;Max_cycle;Signal;HPM_P1;HPM_P2
2021/05/31 00:00:18;;;;;;;10.32;6.45;;;14.60;76.30;;;;;;4957167;29;20031;-83
2021/05/31 00:02:44;;;;;;;17.45;8.30;;;14.60;75.90;;;;;;4958394;29;20063;-83
2021/05/31 00:05:11;;;;;;;11.75;6.47;;;14.50;76.30;;;;;;4960712;29;20027;-82
2021/05/31 00:07:36;;;;;;;11.13;5.65;;;14.50;76.20;;;;;;4966220;28;20051;-82
2021/05/31 00:10:03;;;;;;;14.85;6.97;;;14.50;76.80;;;;;;4967031;28;20066;-82
2021/05/31 00:12:29;;;;;;;11.07;6.22;;;14.40;76.90;;;;;;4965640;28;20041;-83
2021/05/31 00:14:54;;;;;;;18.75;10.75;;;14.30;77.00;;;;;;4962458;28;20113;-83
2021/05/31 00:17:20;;;;;;;14.48;8.57;;;14.40;77.10;;;;;;4960271;28;20065;-83
2021/05/31 00:19:48;;;;;;;11.27;6.72;;;14.30;76.90;;;;;;4961483;28;20022;-83
2021/05/31 00:22:13;;;;;;;13.88;6.90;;;14.30;77.30;;;;;;4963155;28;20139;-83
2021/05/31 00:24:39;;;;;;;15.00;10.10;;;14.30;77.40;;;;;;4967670;28;20061;-83
2021/05/31 00:27:05;;;;;;;18.75;10.23;;;14.30;77.70;;;;;;4973285;28;20382;-83
2021/05/31 00:29:31;;;;;;;11.95;7.93;;;14.20;77.50;;;;;;4961751;28;20495;-83
2021/05/31 00:31:57;;;;;;;16.00;8.55;;;14.20;77.80;;;;;;4959879;28;20027;-83
2021/05/31 00:34:27;;;;;;;15.52;9.55;;;14.30;77.90;;;;;;4959693;28;20122;-83
2021/05/31 00:36:53;;;;;;;13.40;7.90;;;14.20;77.80;;;;;;4959951;28;20082;-82
2021/05/31 00:39:22;;;;;;;18.30;10.43;;;14.10;77.90;;;;;;4959176;28;20027;-83
2021/05/31 00:41:50;;;;;;;8.83;5.60;;;14.10;77.90;;;;;;4965302;28;20031;-84
2021/05/31 00:44:17;;;;;;;14.38;9.63;;;14.10;78.40;;;;;;4961191;28;20041;-83
2021/05/31 00:46:43;;;;;;;18.73;10.38;;;14.00;78.40;;;;;;4960281;28;20031;-83
2021/05/31 00:49:08;;;;;;;18.60;10.43;;;14.00;78.50;;;;;;4973670;28;20018;-83
2021/05/31 00:51:35;;;;;;;19.23;11.20;;;14.00;78.70;;;;;;4976472;28;20113;-84
2021/05/31 00:54:01;;;;;;;11.48;7.50;;;13.90;78.80;;;;;;4963607;28;20029;-82
2021/05/31 00:56:26;;;;;;;13.60;9.40;;;13.90;79.00;;;;;;4958503;28;20023;-83
2021/05/31 00:58:52;;;;;;;21.30;10.10;;;13.80;79.00;;;;;;4957927;28;20031;-83
2021/05/31 01:01:21;;;;;;;11.38;5.93;;;13.90;79.10;;;;;;4957372;28;20027;-83
2021/05/31 01:03:47;;;;;;;12.88;7.55;;;13.80;79.10;;;;;;4958082;28;20026;-82
2021/05/31 01:06:16;;;;;;;16.75;9.23;;;13.80;79.40;;;;;;4957211;28;20033;-83
2021/05/31 01:08:52;;;;;;;14.80;9.80;;;13.80;79.50;;;;;;4957510;28;20136;-81
2021/05/31 01:11:34;;;;;;;24.50;12.95;;;13.80;79.90;;;;;;4956990;28;20026;-83
2021/05/31 01:14:15;;;;;;;28.33;13.88;;;13.70;80.20;;;;;;4957268;28;20463;-81
2021/05/31 01:16:51;;;;;;;19.20;12.00;;;13.70;81.30;;;;;;4957902;28;20057;-82
2021/05/31 01:19:47;;;;;;;18.13;10.27;;;13.70;80.70;;;;;;4987295;28;20034;-82
2021/05/31 01:22:13;;;;;;;16.77;11.05;;;13.70;80.60;;;;;;4961263;28;20035;-83
2021/05/31 01:25:03;;;;;;;20.90;13.52;;;13.60;80.90;;;;;;4979712;28;20031;-82
2021/05/31 01:27:41;;;;;;;18.30;11.83;;;13.60;81.40;;;;;;4957909;28;20039;-82
2021/05/31 01:30:25;;;;;;;22.58;14.75;;;13.60;81.40;;;;;;4958078;28;20467;-83
2021/05/31 01:32:53;;;;;;;20.90;12.68;;;13.60;82.00;;;;;;4957223;28;20034;-81
2021/05/31 01:35:28;;;;;;;16.45;11.60;;;13.50;82.20;;;;;;4957049;28;20446;-82
2021/05/31 01:37:55;;;;;;;18.65;11.65;;;13.50;82.10;;;;;;4957583;28;20054;-83
2021/05/31 01:40:22;;;;;;;24.55;14.15;;;13.50;82.10;;;;;;4957336;28;20418;-83
2021/05/31 01:42:51;;;;;;;18.83;10.82;;;13.50;82.50;;;;;;4957212;28;20027;-82
2021/05/31 01:45:19;;;;;;;19.52;11.20;;;13.40;82.50;;;;;;4957123;28;20023;-81
2021/05/31 01:47:45;;;;;;;17.98;11.88;;;13.40;82.30;;;;;;4957193;28;20464;-82
2021/05/31 01:50:11;;;;;;;17.42;11.52;;;13.40;82.20;;;;;;4958070;28;20030;-81
2021/05/31 01:52:41;;;;;;;22.75;13.50;;;13.40;82.40;;;;;;4960401;28;20019;-83
2021/05/31 01:55:08;;;;;;;23.88;13.35;;;13.40;82.50;;;;;;4968645;28;20102;-84
2021/05/31 01:57:35;;;;;;;26.23;15.00;;;13.40;83.10;;;;;;4958360;28;20383;-83
2021/05/31 02:00:04;;;;;;;24.33;13.90;;;13.40;83.40;;;;;;4958663;28;20023;-82
2021/05/31 02:02:33;;;;;;;22.65;14.20;;;13.30;83.40;;;;;;4958541;28;20069;-84
2021/05/31 02:04:59;;;;;;;24.80;15.65;;;13.30;83.80;;;;;;4957959;28;20030;-82
2021/05/31 02:07:24;;;;;;;27.08;17.00;;;13.30;84.00;;;;;;4957664;28;20030;-83
2021/05/31 02:09:50;;;;;;;23.00;14.13;;;13.30;84.20;;;;;;4959237;28;20123;-83
2021/05/31 02:12:20;;;;;;;22.88;15.10;;;13.30;84.50;;;;;;4961214;28;20023;-83
2021/05/31 02:15:06;;;;;;;22.60;14.68;;;13.30;84.00;;;;;;4967783;28;20118;-83
2021/05/31 02:17:40;;;;;;;26.90;16.40;;;13.20;84.30;;;;;;4975830;28;20030;-83
2021/05/31 02:20:12;;;;;;;14.63;10.48;;;13.20;84.10;;;;;;4980127;28;20023;-82
2021/05/31 02:22:43;;;;;;;20.45;13.90;;;13.10;84.30;;;;;;4964914;28;20023;-84
2021/05/31 02:25:09;;;;;;;26.65;15.85;;;13.10;84.00;;;;;;4961471;28;20026;-84
2021/05/31 02:27:36;;;;;;;23.73;14.18;;;13.10;84.30;;;;;;4960964;28;20035;-84
2021/05/31 02:30:02;;;;;;;21.73;12.15;;;13.10;84.50;;;;;;4965495;28;20031;-83
2021/05/31 02:32:28;;;;;;;25.23;13.57;;;13.10;84.40;;;;;;4968436;28;20061;-83
2021/05/31 02:34:55;;;;;;;26.00;17.30;;;13.10;84.40;;;;;;4966114;28;20031;-83
2021/05/31 02:37:35;;;;;;;23.05;13.63;;;13.10;85.10;;;;;;4967162;28;20027;-84
2021/05/31 02:40:02;;;;;;;24.77;16.63;;;13.00;84.40;;;;;;4968543;28;20022;-84
2021/05/31 02:42:28;;;;;;;22.58;14.15;;;13.00;84.60;;;;;;4966739;28;20031;-83
2021/05/31 02:44:54;;;;;;;21.77;12.85;;;13.00;84.60;;;;;;4966834;28;20049;-82
2021/05/31 02:47:19;;;;;;;20.50;11.70;;;13.00;84.90;;;;;;4964898;28;20023;-84
2021/05/31 02:49:45;;;;;;;24.10;14.48;;;13.00;84.70;;;;;;4963663;28;20118;-84
2021/05/31 02:52:10;;;;;;;21.83;14.20;;;13.00;84.40;;;;;;4964655;28;20037;-83
2021/05/31 02:54:36;;;;;;;27.90;15.75;;;13.00;84.40;;;;;;4970222;28;20037;-83
2021/05/31 02:57:02;;;;;;;27.00;17.02;;;13.00;84.70;;;;;;4981963;28;20018;-85
2021/05/31 02:59:27;;;;;;;26.98;16.20;;;12.90;84.60;;;;;;4974956;28;20082;-83
2021/05/31 03:01:53;;;;;;;19.02;12.90;;;12.90;84.60;;;;;;4963024;28;20042;-83
2021/05/31 03:04:19;;;;;;;25.85;14.10;;;12.90;84.60;;;;;;4983380;28;20061;-84
2021/05/31 03:06:44;;;;;;;21.70;14.55;;;12.80;84.30;;;;;;4971829;28;20085;-83
2021/05/31 03:09:10;;;;;;;25.73;16.05;;;12.90;84.20;;;;;;4963940;28;20059;-83
2021/05/31 03:11:35;;;;;;;27.83;16.08;;;12.80;84.20;;;;;;4962175;28;20027;-83
2021/05/31 03:14:01;;;;;;;25.48;15.18;;;12.80;84.20;;;;;;4961430;28;20367;-82
2021/05/31 03:16:27;;;;;;;16.45;9.63;;;12.80;84.00;;;;;;4959421;28;20486;-83
2021/05/31 03:18:52;;;;;;;28.30;15.10;;;12.70;83.90;;;;;;4959916;28;20019;-84
2021/05/31 03:21:18;;;;;;;21.95;14.35;;;12.80;84.00;;;;;;4961137;28;20031;-83
2021/05/31 03:23:43;;;;;;;17.73;10.40;;;12.80;84.00;;;;;;4960600;28;20030;-83
2021/05/31 03:26:09;;;;;;;20.60;12.63;;;12.80;83.90;;;;;;4966094;28;20031;-84
2021/05/31 03:28:34;;;;;;;18.10;10.75;;;12.70;83.80;;;;;;4959628;28;20530;-83
2021/05/31 03:31:00;;;;;;;27.17;16.55;;;12.70;83.90;;;;;;4959148;28;20054;-83
2021/05/31 03:33:26;;;;;;;25.20;15.30;;;12.70;83.90;;;;;;4961845;28;20015;-83
2021/05/31 03:35:51;;;;;;;26.90;17.73;;;12.70;84.00;;;;;;4960812;28;20030;-83
2021/05/31 03:38:17;;;;;;;26.40;15.95;;;12.70;84.10;;;;;;4959885;28;20035;-82
2021/05/31 03:40:42;;;;;;;26.60;16.67;;;12.70;84.20;;;;;;4959252;28;20026;-83
2021/05/31 03:43:08;;;;;;;31.77;18.50;;;12.60;84.60;;;;;;4965231;28;20027;-83
2021/05/31 03:45:34;;;;;;;29.15;17.00;;;12.60;84.70;;;;;;4963058;28;20159;-83
2021/05/31 03:47:59;;;;;;;27.02;16.52;;;12.60;84.60;;;;;;4959238;28;20027;-83
2021/05/31 03:50:25;;;;;;;28.05;17.02;;;12.60;84.70;;;;;;4966511;28;20088;-84
2021/05/31 03:52:51;;;;;;;29.77;17.58;;;12.60;85.00;;;;;;4968017;28;20019;-85
2021/05/31 03:55:17;;;;;;;26.38;17.50;;;12.60;85.10;;;;;;4968676;28;20031;-82
2021/05/31 03:57:43;;;;;;;25.02;18.75;;;12.60;85.10;;;;;;4964726;28;20026;-84
2021/05/31 04:00:10;;;;;;;29.45;18.05;;;12.60;85.10;;;;;;4961420;28;20049;-84
2021/05/31 04:02:41;;;;;;;33.90;20.17;;;12.60;85.50;;;;;;4961594;28;20844;-84
2021/05/31 04:05:11;;;;;;;26.48;18.00;;;12.60;85.60;;;;;;4960626;28;20027;-85
2021/05/31 04:13:05;;;;;;;26.60;16.70;;;12.70;85.00;;;;;;4989116;28;20081;-84
2021/05/31 04:15:30;;;;;;;29.52;18.98;;;12.70;84.50;;;;;;4967105;28;20023;-83
2021/05/31 04:17:56;;;;;;;30.27;18.73;;;12.70;84.90;;;;;;4962798;28;20031;-84
2021/05/31 04:20:22;;;;;;;25.40;16.38;;;12.70;84.90;;;;;;4964549;28;20042;-84
2021/05/31 04:22:48;;;;;;;26.77;17.90;;;12.80;84.80;;;;;;4980045;28;20106;-84
2021/05/31 04:25:14;;;;;;;31.20;19.80;;;12.80;84.70;;;;;;4961453;28;20050;-84
2021/05/31 04:27:40;;;;;;;26.48;17.45;;;12.80;84.70;;;;;;4960684;28;20031;-84
2021/05/31 04:30:06;;;;;;;24.70;17.08;;;12.90;84.50;;;;;;4960648;28;20026;-84
2021/05/31 04:32:32;;;;;;;29.95;18.88;;;13.00;84.20;;;;;;4960995;28;20019;-84
2021/05/31 04:34:57;;;;;;;23.42;15.68;;;13.00;84.00;;;;;;4962457;28;20517;-84
2021/05/31 04:37:25;;;;;;;20.40;14.38;;;13.00;83.80;;;;;;4959509;28;20032;-82
2021/05/31 04:39:51;;;;;;;27.23;17.05;;;13.10;83.50;;;;;;4959912;28;20154;-83
2021/05/31 04:42:17;;;;;;;23.40;15.90;;;13.20;82.90;;;;;;4977790;28;20047;-83
2021/05/31 04:44:42;;;;;;;25.67;15.77;;;13.30;82.70;;;;;;4960002;28;20023;-84
2021/05/31 04:47:08;;;;;;;25.85;13.93;;;13.40;81.90;;;;;;4961430;28;20037;-83
2021/05/31 04:49:33;;;;;;;17.77;12.05;;;13.40;81.70;;;;;;4961439;28;20095;-83
2021/05/31 04:52:00;;;;;;;23.98;15.43;;;13.50;81.40;;;;;;4960517;28;20397;-84
2021/05/31 04:54:25;;;;;;;20.17;13.15;;;13.60;81.10;;;;;;4961323;28;20062;-84
2021/05/31 04:56:51;;;;;;;20.77;12.48;;;13.60;80.60;;;;;;4969233;28;20125;-83
2021/05/31 04:59:17;;;;;;;24.67;14.85;;;13.70;80.10;;;;;;4963280;28;20054;-83
2021/05/31 05:01:42;;;;;;;23.30;15.25;;;13.90;79.70;;;;;;4964311;28;20018;-84
2021/05/31 05:04:08;;;;;;;20.30;13.68;;;14.00;79.20;;;;;;4975858;28;20124;-84
2021/05/31 05:06:34;;;;;;;17.80;12.68;;;14.00;78.70;;;;;;4998665;28;20022;-84
2021/05/31 05:09:00;;;;;;;18.48;14.48;;;14.10;78.30;;;;;;4975647;28;20078;-85
2021/05/31 05:11:26;;;;;;;22.65;14.00;;;14.20;77.80;;;;;;4961589;28;20459;-85
2021/05/31 05:13:52;;;;;;;17.75;12.40;;;14.30;77.20;;;;;;4965871;28;20026;-85
2021/05/31 05:16:19;;;;;;;19.80;12.88;;;14.40;76.90;;;;;;4962479;28;20027;-83
2021/05/31 05:18:46;;;;;;;21.05;13.43;;;14.50;76.50;;;;;;4960780;28;20026;-84
2021/05/31 05:21:12;;;;;;;22.70;14.75;;;14.60;76.20;;;;;;4960892;28;20108;-84
2021/05/31 05:23:38;;;;;;;25.48;13.63;;;14.70;75.30;;;;;;4961507;28;20081;-85
2021/05/31 05:26:04;;;;;;;25.52;14.82;;;14.70;75.00;;;;;;4961540;28;20022;-84
2021/05/31 05:28:31;;;;;;;20.98;13.52;;;14.80;74.80;;;;;;4959443;28;20046;-84
2021/05/31 05:30:57;;;;;;;22.23;13.05;;;14.90;74.60;;;;;;4963075;28;20058;-83
2021/05/31 05:33:22;;;;;;;22.23;13.80;;;15.00;74.40;;;;;;4966851;28;20030;-84
2021/05/31 05:35:55;;;;;;;17.10;11.75;;;15.10;74.30;;;;;;4960065;28;20117;-85
2021/05/31 05:43:28;;;;;;;18.75;11.90;;;15.50;73.70;;;;;;4981758;28;20059;-85
2021/05/31 05:48:39;;;;;;;17.65;11.23;;;15.70;73.00;;;;;;4984959;28;20073;-83
2021/05/31 05:51:06;;;;;;;20.60;12.20;;;15.70;72.80;;;;;;4965841;28;20398;-84
2021/05/31 05:53:39;;;;;;;15.57;11.07;;;15.90;72.50;;;;;;4954521;29;20047;-83
2021/05/31 05:56:07;;;;;;;20.20;12.05;;;16.00;72.30;;;;;;4968393;28;20023;-82
2021/05/31 05:58:33;;;;;;;20.15;12.07;;;16.20;72.30;;;;;;4960442;29;20027;-84
2021/05/31 06:01:00;;;;;;;18.92;12.68;;;16.30;71.60;;;;;;4952951;29;20031;-84
2021/05/31 06:03:26;;;;;;;24.52;12.65;;;16.40;72.20;;;;;;4967643;28;20034;-85
2021/05/31 06:05:56;;;;;;;21.73;12.20;;;16.50;71.30;;;;;;4972955;28;20026;-87
2021/05/31 06:08:23;;;;;;;19.48;12.23;;;16.60;71.10;;;;;;4981499;28;20054;-85
2021/05/31 06:10:49;;;;;;;21.85;14.73;;;16.80;69.90;;;;;;4969771;28;20031;-88
2021/05/31 06:13:15;;;;;;;20.80;13.30;;;16.80;69.10;;;;;;4967069;28;20079;-87
2021/05/31 06:15:40;;;;;;;19.10;13.20;;;16.90;69.40;;;;;;4964858;28;20424;-87
2021/05/31 06:18:06;;;;;;;24.60;14.52;;;16.80;69.10;;;;;;4985857;28;20099;-86
2021/05/31 06:20:34;;;;;;;17.83;8.57;;;17.00;69.60;;;;;;4966862;28;20019;-85
2021/05/31 06:23:01;;;;;;;18.50;12.10;;;17.10;69.20;;;;;;4965749;28;20045;-86
2021/05/31 06:25:26;;;;;;;22.85;12.63;;;17.20;68.20;;;;;;4965951;28;20027;-86
2021/05/31 06:27:52;;;;;;;18.98;11.77;;;17.40;68.50;;;;;;4967180;28;20054;-86
2021/05/31 06:30:19;;;;;;;19.73;12.27;;;17.40;67.90;;;;;;4965944;28;20027;-86
2021/05/31 06:32:44;;;;;;;19.35;10.52;;;17.60;67.30;;;;;;4983630;28;20019;-86
2021/05/31 06:35:10;;;;;;;19.10;11.65;;;17.70;67.30;;;;;;4965323;28;20073;-85
2021/05/31 06:37:39;;;;;;;18.92;11.93;;;17.80;66.50;;;;;;4982993;28;20039;-86
2021/05/31 06:40:13;;;;;;;18.23;9.88;;;17.90;66.60;;;;;;4965592;28;20019;-86
2021/05/31 06:42:40;;;;;;;19.00;10.65;;;18.00;65.70;;;;;;4964584;28;20073;-85
2021/05/31 06:45:09;;;;;;;18.75;11.02;;;18.10;65.50;;;;;;4970456;28;20114;-85
2021/05/31 06:47:36;;;;;;;17.85;10.77;;;18.10;64.70;;;;;;4964340;28;20018;-86
2021/05/31 06:50:03;;;;;;;14.80;8.48;;;18.20;65.10;;;;;;4963234;28;20077;-86
2021/05/31 06:52:29;;;;;;;19.23;11.45;;;18.30;65.20;;;;;;4963617;28;20035;-85
2021/05/31 06:54:54;;;;;;;19.90;10.50;;;18.40;65.20;;;;;;4968737;28;20037;-81
2021/05/31 06:57:20;;;;;;;20.55;12.00;;;18.50;65.40;;;;;;4961840;28;20037;-82
2021/05/31 06:59:46;;;;;;;20.33;11.88;;;18.60;64.00;;;;;;4960986;28;20451;-86
2021/05/31 07:02:11;;;;;;;19.02;11.02;;;18.80;64.00;;;;;;4964324;28;20033;-85
2021/05/31 07:04:37;;;;;;;17.58;12.00;;;18.90;64.20;;;;;;4962949;28;20106;-85
2021/05/31 07:07:03;;;;;;;18.52;11.60;;;19.00;63.70;;;;;;4963121;28;20042;-83
2021/05/31 07:09:28;;;;;;;18.13;10.75;;;18.90;63.70;;;;;;4962355;28;20046;-84
2021/05/31 07:11:54;;;;;;;12.23;7.28;;;18.90;64.20;;;;;;4995735;28;20030;-83
2021/05/31 07:14:21;;;;;;;20.52;12.05;;;19.10;64.30;;;;;;4975771;28;20027;-83
2021/05/31 07:16:51;;;;;;;17.42;9.00;;;19.20;63.50;;;;;;4970817;28;20074;-85
2021/05/31 07:19:17;;;;;;;19.48;12.43;;;19.10;63.60;;;;;;4966082;28;20018;-85
2021/05/31 07:21:43;;;;;;;20.13;11.07;;;19.20;63.20;;;;;;4968929;28;20027;-82
2021/05/31 07:24:10;;;;;;;22.08;11.45;;;19.20;63.20;;;;;;4959996;28;20123;-83
2021/05/31 07:26:36;;;;;;;17.55;8.77;;;19.20;63.10;;;;;;4959371;28;20030;-85
2021/05/31 07:29:03;;;;;;;16.52;9.10;;;19.30;63.00;;;;;;4959777;28;20026;-84
2021/05/31 07:31:29;;;;;;;14.93;8.18;;;19.40;62.90;;;;;;4965510;28;20057;-88
2021/05/31 07:33:54;;;;;;;20.58;11.40;;;19.60;63.10;;;;;;4968099;28;20031;-86
2021/05/31 07:36:21;;;;;;;17.75;10.82;;;19.80;61.00;;;;;;4984159;28;20034;-87
2021/05/31 07:38:47;;;;;;;15.68;10.95;;;19.90;61.40;;;;;;4963103;28;20022;-86
2021/05/31 07:41:13;;;;;;;16.45;9.10;;;20.10;61.00;;;;;;4962548;28;20019;-85
2021/05/31 07:43:38;;;;;;;20.23;10.48;;;20.20;60.90;;;;;;4963906;28;20031;-87
2021/05/31 07:46:04;;;;;;;15.75;8.88;;;20.30;60.90;;;;;;4963092;28;20031;-86
2021/05/31 07:48:30;;;;;;;11.93;7.03;;;20.50;61.10;;;;;;4962717;28;20037;-88
2021/05/31 07:51:14;;;;;;;15.32;12.00;;;20.70;60.00;;;;;;4964356;28;20023;-87
2021/05/31 07:53:41;;;;;;;16.15;10.93;;;20.70;59.30;;;;;;4964387;28;20023;-87
2021/05/31 07:56:07;;;;;;;17.77;9.05;;;20.80;59.80;;;;;;4971651;28;20027;-78
2021/05/31 07:58:32;;;;;;;18.42;9.80;;;21.00;59.00;;;;;;4957838;28;20074;-77
2021/05/31 08:00:59;;;;;;;10.10;6.75;;;21.10;58.90;;;;;;4975995;28;20041;-79
2021/05/31 08:03:25;;;;;;;16.92;11.15;;;21.20;59.10;;;;;;4965170;28;20027;-79
2021/05/31 08:05:51;;;;;;;20.45;9.90;;;21.40;58.00;;;;;;4976357;28;20090;-77
2021/05/31 08:08:16;;;;;;;12.75;5.63;;;21.50;58.40;;;;;;4957697;28;20057;-77
2021/05/31 08:10:42;;;;;;;14.13;9.50;;;21.60;57.80;;;;;;4952360;28;20027;-77
2021/05/31 08:13:09;;;;;;;16.95;9.80;;;21.60;58.60;;;;;;4990077;28;20142;-77
2021/05/31 08:15:35;;;;;;;15.52;8.55;;;21.90;57.70;;;;;;4957773;28;20101;-76
2021/05/31 08:18:00;;;;;;;15.25;9.57;;;22.00;57.20;;;;;;4974954;28;20061;-76
2021/05/31 08:20:26;;;;;;;12.93;7.63;;;22.00;56.10;;;;;;4975452;28;20430;-75
2021/05/31 08:22:51;;;;;;;12.30;7.10;;;22.00;56.50;;;;;;4957595;28;20026;-75
2021/05/31 08:25:17;;;;;;;17.30;9.57;;;21.90;57.00;;;;;;4957994;28;20027;-76
2021/05/31 08:27:44;;;;;;;18.77;12.30;;;22.10;57.30;;;;;;4976650;28;20105;-75
2021/05/31 08:30:10;;;;;;;15.18;8.65;;;22.10;56.90;;;;;;4978770;28;20090;-74
2021/05/31 08:32:36;;;;;;;18.63;10.70;;;22.20;56.20;;;;;;4982740;28;20022;-74
2021/05/31 08:35:01;;;;;;;10.85;7.10;;;22.20;55.50;;;;;;4958953;28;20022;-76
2021/05/31 08:37:27;;;;;;;18.23;9.70;;;22.40;55.90;;;;;;4962439;28;20123;-76
2021/05/31 08:39:53;;;;;;;17.25;11.07;;;22.40;55.30;;;;;;4976746;28;20111;-75
2021/05/31 08:42:19;;;;;;;19.13;11.38;;;22.50;55.90;;;;;;4974266;28;20027;-74
2021/05/31 08:44:45;;;;;;;10.13;7.40;;;22.60;55.20;;;;;;4974287;28;20110;-75
2021/05/31 08:47:11;;;;;;;18.23;10.38;;;22.60;55.70;;;;;;4974670;28;20166;-75
2021/05/31 08:49:37;;;;;;;13.65;8.50;;;22.70;55.20;;;;;;4973937;28;20041;-74
2021/05/31 08:52:05;;;;;;;9.98;5.45;;;23.00;54.60;;;;;;4974340;28;20030;-73
2021/05/31 08:54:30;;;;;;;15.18;8.85;;;23.10;54.50;;;;;;4956864;28;20027;-74
2021/05/31 08:56:56;;;;;;;10.18;6.93;;;23.10;52.20;;;;;;4956725;28;20451;-75
2021/05/31 08:59:22;;;;;;;14.68;8.02;;;23.20;52.90;;;;;;4956797;28;20376;-75
2021/05/31 09:01:48;;;;;;;14.00;8.60;;;23.40;52.60;;;;;;4974085;28;20038;-74
2021/05/31 09:04:15;;;;;;;9.32;5.43;;;23.40;51.40;;;;;;4956409;28;20030;-74
2021/05/31 09:06:52;;;;;;;13.73;7.78;;;23.50;52.60;;;;;;4974063;28;20026;-76
2021/05/31 09:09:18;;;;;;;10.75;6.47;;;23.60;52.00;;;;;;4981693;28;20050;-78
2021/05/31 09:11:56;;;;;;;7.28;4.72;;;23.70;51.20;;;;;;4974438;28;20082;-77
2021/05/31 09:14:23;;;;;;;11.32;7.88;;;23.70;52.50;;;;;;4960868;28;20019;-77
2021/05/31 09:16:48;;;;;;;8.82;4.35;;;23.80;50.30;;;;;;4968765;28;20023;-77
2021/05/31 09:19:14;;;;;;;9.50;5.07;;;24.00;53.20;;;;;;4970807;28;20057;-75
2021/05/31 09:21:42;;;;;;;12.57;4.85;;;24.10;53.80;;;;;;4959146;28;20034;-77
2021/05/31 09:24:14;;;;;;;9.80;5.97;;;24.20;52.50;;;;;;4956223;28;20125;-76
2021/05/31 09:26:46;;;;;;;11.40;6.30;;;24.30;49.40;;;;;;4971826;28;20023;-75
2021/05/31 09:29:12;;;;;;;7.70;3.95;;;24.40;48.10;;;;;;4973889;28;20034;-76
2021/05/31 09:31:38;;;;;;;9.95;4.95;;;24.40;52.70;;;;;;4973612;28;20034;-77
2021/05/31 09:34:08;;;;;;;12.35;6.68;;;24.50;48.40;;;;;;4974244;28;20023;-76
2021/05/31 09:36:50;;;;;;;9.75;5.10;;;24.60;47.30;;;;;;4974282;28;20062;-77
2021/05/31 09:39:16;;;;;;;9.00;4.63;;;24.60;47.80;;;;;;4956852;28;20383;-77
2021/05/31 09:41:42;;;;;;;8.60;4.63;;;24.70;51.80;;;;;;4956374;28;20027;-79
2021/05/31 09:44:09;;;;;;;12.40;5.38;;;24.70;48.60;;;;;;4959726;28;20023;-76
2021/05/31 09:46:46;;;;;;;6.03;3.45;;;24.80;46.20;;;;;;4956992;28;20046;-77
2021/05/31 09:49:23;;;;;;;6.30;3.58;;;24.90;51.70;;;;;;4974217;28;20033;-75
2021/05/31 09:51:49;;;;;;;9.55;4.88;;;25.20;50.80;;;;;;4957197;28;20056;-76
2021/05/31 09:54:26;;;;;;;6.68;4.60;;;25.30;52.60;;;;;;4971361;28;20027;-76
2021/05/31 09:56:52;;;;;;;9.98;5.40;;;25.50;50.00;;;;;;4958833;28;20053;-76
2021/05/31 09:59:25;;;;;;;9.02;4.63;;;25.60;42.50;;;;;;4956342;28;20458;-76
2021/05/31 10:01:56;;;;;;;6.53;4.38;;;25.40;45.10;;;;;;4956098;28;20359;-76
2021/05/31 10:04:32;;;;;;;8.40;4.93;;;25.30;47.40;;;;;;4957037;28;20394;-76
2021/05/31 10:09:43;;;;;;;8.30;4.40;;;25.40;44.10;;;;;;4973258;28;20102;-74
2021/05/31 10:12:10;;;;;;;8.45;4.32;;;25.70;43.10;;;;;;4973513;28;20031;-76
2021/05/31 10:14:36;;;;;;;7.28;4.20;;;26.00;50.70;;;;;;4956194;28;20351;-76
2021/05/31 10:17:03;;;;;;;7.40;4.55;;;26.20;48.30;;;;;;4956002;28;20031;-75
2021/05/31 10:19:30;;;;;;;7.53;3.90;;;26.50;45.10;;;;;;4956536;28;20066;-76
2021/05/31 10:21:56;;;;;;;11.93;5.55;;;26.50;49.80;;;;;;4956071;28;20451;-74
2021/05/31 10:24:22;;;;;;;9.20;5.57;;;26.50;42.60;;;;;;4955999;28;20053;-75
2021/05/31 10:26:48;;;;;;;7.53;5.07;;;26.20;44.00;;;;;;4955665;28;20207;-76
2021/05/31 10:29:14;;;;;;;8.38;4.15;;;26.30;44.90;;;;;;4973645;28;20038;-75
2021/05/31 10:31:45;;;;;;;8.20;4.55;;;26.50;52.30;;;;;;4955809;28;20023;-75
2021/05/31 10:34:18;;;;;;;5.13;2.97;;;26.70;46.20;;;;;;4974763;28;20026;-76
2021/05/31 10:36:45;;;;;;;8.23;4.20;;;26.90;47.00;;;;;;4959331;28;20176;-75
2021/05/31 10:39:25;;;;;;;8.40;4.18;;;26.80;41.80;;;;;;4980483;28;20042;-75
2021/05/31 10:42:02;;;;;;;8.48;4.65;;;26.70;46.00;;;;;;4976967;28;20459;-74
2021/05/31 10:44:30;;;;;;;7.70;3.72;;;26.50;41.40;;;;;;4979832;28;20082;-74
2021/05/31 10:47:07;;;;;;;7.43;3.95;;;26.60;44.70;;;;;;4976595;28;20376;-75
2021/05/31 10:49:33;;;;;;;10.35;4.70;;;26.60;44.50;;;;;;4959272;28;20019;-74
2021/05/31 10:51:59;;;;;;;7.72;4.50;;;26.40;43.60;;;;;;4976775;28;20570;-74
2021/05/31 10:54:25;;;;;;;6.88;4.30;;;26.40;50.20;;;;;;4976619;28;20077;-76
2021/05/31 10:57:02;;;;;;;6.95;4.22;;;26.60;47.70;;;;;;4962838;28;20024;-76
2021/05/31 10:59:28;;;;;;;5.47;3.20;;;26.80;45.70;;;;;;4996205;28;20026;-76
2021/05/31 11:01:53;;;;;;;7.47;4.55;;;26.90;51.00;;;;;;4995667;28;20077;-76
2021/05/31 11:04:19;;;;;;;6.53;4.65;;;27.10;48.00;;;;;;4978670;28;20034;-75
2021/05/31 11:06:46;;;;;;;8.63;4.40;;;27.30;43.00;;;;;;4978368;28;20150;-76
2021/05/31 11:09:50;;;;;;;7.38;3.88;;;27.20;46.80;;;;;;4980406;28;20049;-76
2021/05/31 11:12:15;;;;;;;10.30;4.47;;;27.20;49.70;;;;;;4957919;28;20478;-76
2021/05/31 11:14:43;;;;;;;6.60;3.50;;;27.10;50.90;;;;;;4979411;28;20121;-79
2021/05/31 11:17:15;;;;;;;9.48;4.10;;;27.20;47.40;;;;;;4978709;28;20536;-76
2021/05/31 11:19:43;;;;;;;8.07;4.97;;;27.10;41.40;;;;;;4978400;28;20106;-75
2021/05/31 11:22:12;;;;;;;8.85;4.30;;;27.00;42.60;;;;;;4996191;28;20371;-76
2021/05/31 11:24:37;;;;;;;5.18;2.88;;;27.00;42.00;;;;;;5009290;28;20064;-77
2021/05/31 11:27:03;;;;;;;6.95;3.20;;;27.00;52.40;;;;;;5007020;28;20034;-75
2021/05/31 11:29:29;;;;;;;7.40;3.95;;;27.20;52.80;;;;;;4978110;28;20119;-75
2021/05/31 11:31:54;;;;;;;9.48;4.40;;;27.20;47.70;;;;;;4979705;28;20022;-75
2021/05/31 11:34:20;;;;;;;6.03;3.47;;;27.20;47.60;;;;;;4978385;28;20026;-76
2021/05/31 11:36:46;;;;;;;10.15;3.88;;;27.50;45.70;;;;;;4977468;28;20026;-76
2021/05/31 11:39:14;;;;;;;6.82;4.22;;;27.60;49.10;;;;;;4977773;28;20030;-75
2021/05/31 11:41:44;;;;;;;6.20;2.92;;;27.50;47.20;;;;;;4977755;28;20026;-75
2021/05/31 11:44:11;;;;;;;;;;;27.30;47.20;;;;;;4996596;28;20023;-75
2021/05/31 11:46:47;;;;;;;7.90;4.60;;;27.30;49.80;;;;;;4997284;28;19906;-75
2021/05/31 11:49:14;;;;;;;6.05;4.15;;;27.40;45.20;;;;;;5000121;28;20027;-76
2021/05/31 11:51:40;;;;;;;8.23;5.05;;;27.50;50.20;;;;;;4957042;28;20042;-75
2021/05/31 11:54:06;;;;;;;7.85;4.65;;;27.70;47.40;;;;;;4951381;28;20015;-75
2021/05/31 11:56:36;;;;;;;7.65;4.10;;;27.80;40.40;;;;;;4957213;28;20019;-76
2021/05/31 11:59:02;;;;;;;;;;;27.70;50.30;;;;;;4975401;28;20538;-75
2021/05/31 12:01:29;;;;;;;6.82;2.97;;;27.60;49.10;;;;;;4956375;28;19913;-76
2021/05/31 12:03:55;;;;;;;5.90;3.45;;;27.40;53.60;;;;;;4957418;28;20050;-75
2021/05/31 12:06:21;;;;;;;6.40;2.65;;;27.60;54.40;;;;;;4974237;28;20027;-77
2021/05/31 12:08:48;;;;;;;8.00;3.67;;;27.90;53.10;;;;;;4980147;28;20046;-75
2021/05/31 12:11:27;;;;;;;9.00;3.83;;;28.20;47.30;;;;;;4957627;28;20201;-75
2021/05/31 12:14:01;;;;;;;11.20;4.70;;;28.00;50.00;;;;;;4974572;28;20027;-75
2021/05/31 12:16:27;;;;;;;7.78;4.95;;;27.60;45.70;;;;;;4974634;28;20483;-76
2021/05/31 12:18:52;;;;;;;10.00;4.45;;;27.50;40.90;;;;;;4974794;28;20027;-74
2021/05/31 12:21:18;;;;;;;9.55;4.35;;;27.80;51.70;;;;;;4975028;28;20254;-76
2021/05/31 12:23:50;;;;;;;6.18;2.80;;;27.90;49.10;;;;;;4957447;28;20023;-76
2021/05/31 12:26:21;;;;;;;7.82;3.58;;;27.70;54.00;;;;;;4957220;28;20027;-76
2021/05/31 12:28:47;;;;;;;8.15;4.10;;;27.30;53.80;;;;;;4957410;28;20075;-76
2021/05/31 12:31:13;;;;;;;7.93;4.95;;;27.30;47.60;;;;;;4974654;28;20030;-75
2021/05/31 12:33:39;;;;;;;9.07;5.07;;;27.30;52.30;;;;;;4957001;28;20023;-81
2021/05/31 12:36:09;;;;;;;6.90;3.65;;;27.50;49.40;;;;;;4957532;28;20041;-81
2021/05/31 12:38:38;;;;;;;10.57;3.97;;;27.60;50.40;;;;;;4957933;28;20479;-79
2021/05/31 12:41:04;;;;;;;5.80;3.50;;;27.80;52.80;;;;;;4964394;28;20041;-81
2021/05/31 12:43:35;;;;;;;6.30;3.75;;;28.00;39.80;;;;;;4963397;28;20495;-81
2021/05/31 12:46:01;;;;;;;7.68;3.28;;;28.10;40.60;;;;;;4960431;28;20113;-80
2021/05/31 12:48:27;;;;;;;7.90;4.85;;;28.00;50.90;;;;;;4959705;28;20542;-82
2021/05/31 12:50:56;;;;;;;5.95;3.97;;;28.00;47.20;;;;;;4959091;28;20031;-81
2021/05/31 12:53:26;;;;;;;8.90;3.53;;;28.00;39.50;;;;;;4959205;28;20025;-83